createdAt,value
2024-05-09T00:08:20.805Z,95
2024-05-09T00:23:27.020Z,95
2024-05-09T00:38:21.081Z,95
2024-05-09T00:53:21.054Z,95
2024-05-09T01:08:20.936Z,95
2024-05-09T01:23:21.082Z,95
2024-05-09T01:38:20.811Z,95
2024-05-09T01:53:20.788Z,95
2024-05-09T02:08:21.257Z,95
2024-05-09T02:23:20.889Z,95
2024-05-09T02:38:20.867Z,95
2024-05-09T02:53:20.710Z,95
2024-05-09T03:08:20.935Z,95
2024-05-09T03:23:20.841Z,95
2024-05-09T03:38:20.875Z,95
2024-05-09T03:53:20.961Z,95
2024-05-09T04:08:20.781Z,91
2024-05-09T04:23:20.975Z,94
2024-05-09T04:38:20.987Z,84
2024-05-09T04:53:21.024Z,87
2024-05-09T05:08:20.932Z,87
2024-05-09T05:23:20.951Z,80
2024-05-09T05:38:23.873Z,86
2024-05-09T05:53:21.149Z,80
2024-05-09T06:08:20.908Z,76
2024-05-09T06:23:21.040Z,76
2024-05-09T06:38:20.834Z,68
2024-05-09T06:53:21.094Z,67
2024-05-09T07:08:21.079Z,69
2024-05-09T07:23:21.318Z,66
2024-05-09T07:38:21.083Z,65
2024-05-09T07:53:38.677Z,60
2024-05-09T08:08:24.016Z,61
2024-05-09T08:23:20.944Z,61
2024-05-09T08:38:21.017Z,61
2024-05-09T08:53:21.031Z,55
2024-05-09T09:08:21.156Z,54
2024-05-09T09:23:20.984Z,53
2024-05-09T09:38:21.006Z,52
2024-05-09T09:53:20.859Z,58
2024-05-09T10:08:21.140Z,63
2024-05-09T10:23:20.863Z,60
2024-05-09T10:38:21.045Z,60
2024-05-09T10:53:21.115Z,63
2024-05-09T11:08:21.112Z,63
2024-05-09T11:23:21.213Z,61
2024-05-09T11:38:21.059Z,61
2024-05-09T11:53:21.127Z,62
2024-05-09T12:08:21.142Z,60
2024-05-09T12:23:21.014Z,62
2024-05-09T12:38:21.211Z,65
2024-05-09T12:53:21.203Z,69
2024-05-09T13:08:21.151Z,72
2024-05-09T13:23:21.024Z,72
2024-05-09T13:38:21.554Z,75
2024-05-09T13:53:21.059Z,75
2024-05-09T14:08:21.161Z,76
2024-05-09T14:23:21.086Z,76
2024-05-09T14:38:21.157Z,81
2024-05-09T14:53:21.307Z,85
2024-05-09T15:08:21.387Z,92
2024-05-09T15:23:21.294Z,95
2024-05-09T15:38:21.314Z,95
2024-05-09T15:53:21.271Z,95
2024-05-09T16:08:21.280Z,95
2024-05-09T16:23:21.216Z,95
2024-05-09T16:38:21.104Z,95
2024-05-09T16:53:21.527Z,95
2024-05-09T17:08:21.255Z,95
2024-05-09T17:23:21.678Z,95
2024-05-09T17:38:21.481Z,95
2024-05-09T17:53:21.194Z,95
2024-05-09T18:08:21.415Z,95
2024-05-09T18:23:21.335Z,95
2024-05-09T18:38:21.339Z,95
2024-05-09T18:53:21.168Z,95
2024-05-09T19:08:21.315Z,95
2024-05-09T19:23:21.183Z,95
2024-05-09T19:38:21.167Z,95
2024-05-09T19:53:21.301Z,95
2024-05-09T20:08:21.330Z,95
2024-05-09T20:23:21.293Z,95
2024-05-09T20:38:21.272Z,95
2024-05-09T20:53:21.331Z,95
2024-05-09T21:08:22.332Z,95
2024-05-09T21:23:21.320Z,95
2024-05-09T21:38:21.406Z,95
2024-05-09T21:53:21.216Z,95
2024-05-09T22:08:21.381Z,95
2024-05-09T22:23:21.407Z,95
2024-05-09T22:38:21.257Z,95
2024-05-09T22:53:21.333Z,95
2024-05-09T23:08:21.515Z,95
2024-05-09T23:23:21.373Z,95
2024-05-09T23:38:23.744Z,95
2024-05-09T23:53:21.438Z,95
